Time;durP1;ratioP1;P1;durP2;ratioP2;P2;SDS_P1;SDS_P2;PMS_P1;PMS_P2;Temp;Humidity;BMP_temperature;BMP_pressure;BME280_temperature;BME280_humidity;BME280_pressure;Samples;Min_cycle;Max_cycle;Signal;HPM_P1;HPM_P2
2022/08/29 00:00:57;;;;;;;6.75;3.85;;;;;;;;;;5056184;28;20021;-68
2022/08/29 00:03:23;;;;;;;8.07;4.43;;;;;;;;;;5056150;28;20028;-69
2022/08/29 00:05:49;;;;;;;9.35;4.35;;;;;;;;;;5056104;28;20087;-69
2022/08/29 00:08:15;;;;;;;7.72;4.05;;;;;;;;;;5056079;28;20029;-68
2022/08/29 00:10:41;;;;;;;8.38;4.60;;;;;;;;;;5056317;28;20086;-69
2022/08/29 00:13:08;;;;;;;9.13;4.20;;;;;;;;;;5056286;28;20024;-68
2022/08/29 00:15:35;;;;;;;7.53;4.65;;;;;;;;;;5056109;28;20158;-69
2022/08/29 00:18:01;;;;;;;8.52;4.43;;;;;;;;;;5056138;28;20020;-69
2022/08/29 00:20:29;;;;;;;8.32;4.47;;;;;;;;;;5056364;28;20025;-68
2022/08/29 00:22:55;;;;;;;6.93;4.30;;;;;;;;;;5055761;28;20099;-68
2022/08/29 00:25:21;;;;;;;10.82;4.50;;;;;;;;;;5056006;28;20428;-69
2022/08/29 00:27:48;;;;;;;7.65;4.65;;;;;;;;;;5055957;28;20104;-68
2022/08/29 00:30:14;;;;;;;8.57;4.43;;;;;;;;;;5056440;28;20481;-68
2022/08/29 00:32:40;;;;;;;9.75;4.28;;;;;;;;;;5037188;28;20049;-68
2022/08/29 00:35:17;;;;;;;9.00;4.80;;;;;;;;;;5055553;28;20037;-69
2022/08/29 00:37:43;;;;;;;9.13;4.40;;;;;;;;;;5056120;28;20017;-68
2022/08/29 00:40:10;;;;;;;8.55;4.13;;;;;;;;;;5055751;28;20021;-69
2022/08/29 00:42:37;;;;;;;8.57;4.57;;;;;;;;;;5037523;28;20024;-68
2022/08/29 00:45:05;;;;;;;9.95;5.00;;;;;;;;;;5055443;28;20021;-68
2022/08/29 00:47:33;;;;;;;10.35;4.97;;;;;;;;;;5055320;28;20079;-68
2022/08/29 00:50:01;;;;;;;8.75;4.97;;;;;;;;;;5055363;28;20033;-69
2022/08/29 00:52:30;;;;;;;9.07;5.43;;;;;;;;;;5055566;28;20017;-69
2022/08/29 00:54:56;;;;;;;9.30;5.07;;;;;;;;;;5055415;28;20025;-69
2022/08/29 00:57:23;;;;;;;8.45;5.20;;;;;;;;;;5054777;28;20079;-68
2022/08/29 00:59:50;;;;;;;11.18;5.20;;;;;;;;;;5055141;28;20469;-69
2022/08/29 01:02:16;;;;;;;6.82;4.53;;;;;;;;;;5055046;28;20024;-68
2022/08/29 01:04:42;;;;;;;8.45;4.88;;;;;;;;;;5055008;28;20043;-68
2022/08/29 01:07:09;;;;;;;10.95;5.10;;;;;;;;;;5055030;28;20025;-68
2022/08/29 01:09:35;;;;;;;8.38;4.40;;;;;;;;;;5055224;28;20033;-69
2022/08/29 01:12:14;;;;;;;8.07;4.68;;;;;;;;;;5054865;28;20060;-69
2022/08/29 01:14:45;;;;;;;6.60;4.40;;;;;;;;;;5055347;28;20056;-68
2022/08/29 01:17:30;;;;;;;6.32;4.38;;;;;;;;;;5036722;28;20025;-68
2022/08/29 01:19:59;;;;;;;10.95;4.82;;;;;;;;;;5054732;28;20393;-69
2022/08/29 01:22:28;;;;;;;8.73;4.72;;;;;;;;;;5054684;28;20477;-68
2022/08/29 01:24:54;;;;;;;8.82;4.55;;;;;;;;;;5054650;28;20104;-69
2022/08/29 01:27:22;;;;;;;7.53;4.50;;;;;;;;;;5055147;28;20021;-69
2022/08/29 01:29:48;;;;;;;8.57;4.55;;;;;;;;;;5054609;28;20054;-69
2022/08/29 01:32:15;;;;;;;10.43;4.70;;;;;;;;;;5055005;28;20100;-69
2022/08/29 01:34:41;;;;;;;10.15;4.93;;;;;;;;;;5054391;28;20029;-69
2022/08/29 01:37:09;;;;;;;10.18;4.95;;;;;;;;;;5054666;28;20025;-69
2022/08/29 01:39:37;;;;;;;10.93;5.03;;;;;;;;;;5054380;28;20104;-69
2022/08/29 01:42:05;;;;;;;8.32;4.85;;;;;;;;;;5054256;28;20103;-68
2022/08/29 01:44:32;;;;;;;10.68;5.13;;;;;;;;;;5053356;28;20028;-68
2022/08/29 01:46:59;;;;;;;11.80;5.43;;;;;;;;;;5054241;28;20078;-68
2022/08/29 01:49:26;;;;;;;10.63;4.90;;;;;;;;;;5036278;28;20032;-68
2022/08/29 01:51:52;;;;;;;10.80;4.82;;;;;;;;;;5054145;28;20040;-69
2022/08/29 01:54:19;;;;;;;9.35;4.75;;;;;;;;;;5054050;28;20017;-68
2022/08/29 01:56:47;;;;;;;9.10;5.40;;;;;;;;;;5053741;28;20037;-69
2022/08/29 01:59:15;;;;;;;9.13;4.68;;;;;;;;;;5053997;28;20025;-68
2022/08/29 02:01:45;;;;;;;13.30;5.80;;;;;;;;;;5053878;28;20029;-69
2022/08/29 02:04:11;;;;;;;11.68;4.88;;;;;;;;;;5053895;28;20025;-69
2022/08/29 02:06:37;;;;;;;8.13;4.82;;;;;;;;;;5053870;28;20025;-68
2022/08/29 02:09:04;;;;;;;10.55;5.65;;;;;;;;;;5054064;28;20063;-69
2022/08/29 02:11:30;;;;;;;8.88;5.03;;;;;;;;;;5053743;28;20584;-69
2022/08/29 02:13:57;;;;;;;7.57;4.93;;;;;;;;;;5053699;28;20397;-68
2022/08/29 02:16:24;;;;;;;11.25;5.00;;;;;;;;;;5053626;28;20052;-69
2022/08/29 02:18:50;;;;;;;9.32;5.20;;;;;;;;;;5053655;28;20060;-69
2022/08/29 02:21:18;;;;;;;6.97;4.05;;;;;;;;;;5053598;28;20052;-68
2022/08/29 02:23:45;;;;;;;8.13;4.40;;;;;;;;;;5054087;28;20057;-69
2022/08/29 02:26:12;;;;;;;11.65;5.00;;;;;;;;;;5053532;28;20033;-69
2022/08/29 02:28:40;;;;;;;7.88;4.30;;;;;;;;;;5053815;28;20052;-69
2022/08/29 02:31:07;;;;;;;12.30;5.28;;;;;;;;;;5053970;28;20493;-69
2022/08/29 02:33:34;;;;;;;10.45;4.68;;;;;;;;;;5053405;28;20477;-68
2022/08/29 02:36:01;;;;;;;10.77;4.88;;;;;;;;;;5053313;28;20108;-69
2022/08/29 02:38:27;;;;;;;11.48;4.80;;;;;;;;;;5053612;28;20516;-68
2022/08/29 02:40:53;;;;;;;8.77;4.35;;;;;;;;;;5053300;28;20550;-69
2022/08/29 02:43:20;;;;;;;9.32;5.15;;;;;;;;;;5053254;28;20033;-68
2022/08/29 02:45:47;;;;;;;13.88;4.90;;;;;;;;;;5053255;28;20381;-68
2022/08/29 02:48:13;;;;;;;13.85;4.65;;;;;;;;;;5053212;28;20033;-69
2022/08/29 02:50:44;;;;;;;10.10;4.95;;;;;;;;;;5053772;28;20045;-68
2022/08/29 02:53:10;;;;;;;8.75;4.60;;;;;;;;;;5053740;28;20036;-69
2022/08/29 02:55:37;;;;;;;7.90;4.00;;;;;;;;;;5052645;28;20052;-69
2022/08/29 02:58:04;;;;;;;8.38;4.18;;;;;;;;;;5053442;28;20032;-68
2022/08/29 03:00:31;;;;;;;9.70;4.07;;;;;;;;;;5053054;28;20021;-68
2022/08/29 03:02:57;;;;;;;10.77;4.28;;;;;;;;;;5053384;28;20112;-69
2022/08/29 03:05:26;;;;;;;7.95;4.63;;;;;;;;;;5053265;28;20481;-68
2022/08/29 03:07:52;;;;;;;10.45;5.00;;;;;;;;;;5053030;28;20079;-69
2022/08/29 03:10:19;;;;;;;7.32;4.57;;;;;;;;;;5053537;28;20104;-69
2022/08/29 03:12:45;;;;;;;9.50;4.32;;;;;;;;;;5035096;28;20037;-68
2022/08/29 03:15:11;;;;;;;7.82;4.07;;;;;;;;;;5052906;28;20025;-68
2022/08/29 03:17:37;;;;;;;7.00;4.07;;;;;;;;;;5052953;28;20032;-69
2022/08/29 03:20:04;;;;;;;8.57;4.53;;;;;;;;;;5052916;28;20030;-68
2022/08/29 03:22:30;;;;;;;7.63;4.10;;;;;;;;;;5052906;28;20370;-69
2022/08/29 03:24:56;;;;;;;9.98;5.25;;;;;;;;;;5052837;28;20032;-69
2022/08/29 03:27:22;;;;;;;8.80;4.53;;;;;;;;;;5053133;28;20029;-69
2022/08/29 03:29:48;;;;;;;8.98;4.10;;;;;;;;;;5052835;28;20031;-69
2022/08/29 03:32:14;;;;;;;7.53;4.32;;;;;;;;;;5053547;28;20104;-69
2022/08/29 03:34:40;;;;;;;9.00;3.88;;;;;;;;;;5052992;28;20055;-69
2022/08/29 03:37:06;;;;;;;8.95;4.57;;;;;;;;;;5052774;28;20465;-68
2022/08/29 03:39:34;;;;;;;9.68;3.95;;;;;;;;;;5052740;28;20053;-69
2022/08/29 03:42:00;;;;;;;7.30;4.22;;;;;;;;;;5052957;28;20028;-68
2022/08/29 03:44:27;;;;;;;6.20;4.10;;;;;;;;;;5052634;28;20473;-68
2022/08/29 03:46:55;;;;;;;7.60;3.83;;;;;;;;;;5052925;28;20470;-68
2022/08/29 03:49:21;;;;;;;7.80;4.43;;;;;;;;;;5052691;28;20020;-68
2022/08/29 03:51:48;;;;;;;8.25;4.40;;;;;;;;;;5052593;28;20021;-68
2022/08/29 03:54:14;;;;;;;9.38;4.88;;;;;;;;;;5052575;28;20026;-69
2022/08/29 03:56:41;;;;;;;8.88;4.10;;;;;;;;;;5052333;28;20052;-69
2022/08/29 03:59:07;;;;;;;10.25;4.55;;;;;;;;;;5052541;28;20029;-68
2022/08/29 04:01:33;;;;;;;9.63;5.15;;;;;;;;;;5052511;28;20385;-68
2022/08/29 04:04:00;;;;;;;10.45;4.38;;;;;;;;;;5052545;28;20121;-69
2022/08/29 04:06:27;;;;;;;7.47;4.50;;;;;;;;;;5052733;28;20025;-68
2022/08/29 04:08:53;;;;;;;10.43;4.65;;;;;;;;;;5054934;28;20047;-68
2022/08/29 04:11:22;;;;;;;9.23;4.30;;;;;;;;;;5056015;28;20026;-69
2022/08/29 04:13:48;;;;;;;8.38;4.70;;;;;;;;;;5038105;28;20021;-69
2022/08/29 04:16:16;;;;;;;9.80;5.10;;;;;;;;;;5056380;28;20108;-68
2022/08/29 04:18:42;;;;;;;11.70;4.60;;;;;;;;;;5056443;28;20029;-68
2022/08/29 04:21:08;;;;;;;7.00;4.50;;;;;;;;;;5055847;28;20105;-69
2022/08/29 04:23:35;;;;;;;8.82;4.25;;;;;;;;;;5055797;28;20028;-68
2022/08/29 04:26:01;;;;;;;8.50;4.53;;;;;;;;;;5055739;28;20031;-69
2022/08/29 04:28:27;;;;;;;10.68;4.57;;;;;;;;;;5055707;28;20104;-69
2022/08/29 04:30:53;;;;;;;7.05;4.35;;;;;;;;;;5056467;28;20029;-68
2022/08/29 04:33:21;;;;;;;7.75;4.13;;;;;;;;;;5055631;28;20036;-69
2022/08/29 04:35:47;;;;;;;8.18;4.32;;;;;;;;;;5055803;28;20032;-68
2022/08/29 04:38:13;;;;;;;10.27;4.97;;;;;;;;;;5055834;28;20496;-69
2022/08/29 04:40:41;;;;;;;10.93;5.22;;;;;;;;;;5055456;28;20083;-68
2022/08/29 04:43:07;;;;;;;9.43;4.47;;;;;;;;;;5056048;28;20013;-68
2022/08/29 04:45:34;;;;;;;8.10;4.53;;;;;;;;;;5055649;28;20031;-69
2022/08/29 04:48:00;;;;;;;7.78;3.97;;;;;;;;;;5055658;28;20025;-68
2022/08/29 04:50:26;;;;;;;7.53;4.35;;;;;;;;;;5055593;28;20029;-69
2022/08/29 04:52:52;;;;;;;6.90;3.90;;;;;;;;;;5055277;28;20025;-68
2022/08/29 04:55:19;;;;;;;8.32;4.15;;;;;;;;;;5054998;28;20491;-68
2022/08/29 04:57:45;;;;;;;11.13;4.40;;;;;;;;;;5055218;28;20031;-68
2022/08/29 05:00:14;;;;;;;10.98;4.25;;;;;;;;;;5055275;28;20068;-68
2022/08/29 05:02:40;;;;;;;9.57;5.10;;;;;;;;;;5055659;28;20028;-69
2022/08/29 05:05:08;;;;;;;12.65;5.13;;;;;;;;;;5055074;28;20051;-68
2022/08/29 05:07:34;;;;;;;9.93;4.93;;;;;;;;;;5054980;28;20028;-69
2022/08/29 05:10:01;;;;;;;11.10;4.47;;;;;;;;;;5055265;28;20525;-69
2022/08/29 05:12:28;;;;;;;9.13;4.93;;;;;;;;;;5054903;28;20025;-69
2022/08/29 05:14:54;;;;;;;7.25;4.30;;;;;;;;;;5054732;28;20533;-68
2022/08/29 05:17:21;;;;;;;9.15;4.93;;;;;;;;;;5054772;28;20027;-68
2022/08/29 05:19:48;;;;;;;7.18;3.85;;;;;;;;;;5055226;28;20025;-69
2022/08/29 05:22:14;;;;;;;7.68;4.22;;;;;;;;;;5054766;28;20025;-68
2022/08/29 05:24:40;;;;;;;8.10;4.32;;;;;;;;;;5054628;28;20021;-68
2022/08/29 05:27:08;;;;;;;9.18;4.00;;;;;;;;;;5054901;28;20025;-68
2022/08/29 05:29:34;;;;;;;8.23;4.20;;;;;;;;;;5054602;28;20078;-69
2022/08/29 05:32:00;;;;;;;9.50;4.43;;;;;;;;;;5055071;28;20024;-69
2022/08/29 05:34:26;;;;;;;9.50;4.65;;;;;;;;;;5054522;28;20450;-69
2022/08/29 05:36:52;;;;;;;7.90;4.47;;;;;;;;;;5054323;28;20033;-68
2022/08/29 05:39:18;;;;;;;10.63;4.78;;;;;;;;;;5054438;28;20021;-68
2022/08/29 05:41:45;;;;;;;7.65;4.20;;;;;;;;;;5054586;28;20100;-69
2022/08/29 05:44:11;;;;;;;9.77;4.40;;;;;;;;;;5054328;28;20500;-69
2022/08/29 05:46:37;;;;;;;12.98;5.78;;;;;;;;;;5054229;28;20025;-68
2022/08/29 05:49:04;;;;;;;10.68;4.93;;;;;;;;;;5054203;28;20036;-68
2022/08/29 05:51:31;;;;;;;10.55;4.40;;;;;;;;;;5054206;28;20020;-68
2022/08/29 05:53:57;;;;;;;8.80;4.18;;;;;;;;;;5054113;28;20108;-69
2022/08/29 05:56:25;;;;;;;9.98;4.50;;;;;;;;;;5054057;28;20041;-69
2022/08/29 05:58:52;;;;;;;9.15;4.25;;;;;;;;;;5054581;28;20056;-68
2022/08/29 06:01:28;;;;;;;13.50;4.38;;;;;;;;;;5054450;28;20021;-69
2022/08/29 06:03:55;;;;;;;10.30;4.80;;;;;;;;;;5035802;28;20028;-69
2022/08/29 06:06:22;;;;;;;10.38;4.35;;;;;;;;;;5054387;28;20025;-69
2022/08/29 06:08:49;;;;;;;7.95;4.53;;;;;;;;;;5053781;28;20035;-68
2022/08/29 06:11:20;;;;;;;9.48;4.50;;;;;;;;;;5054090;28;20071;-68
2022/08/29 06:13:47;;;;;;;11.98;4.85;;;;;;;;;;5054058;28;20032;-68
2022/08/29 06:16:14;;;;;;;8.07;4.57;;;;;;;;;;5053636;28;20024;-69
2022/08/29 06:18:40;;;;;;;9.18;4.93;;;;;;;;;;5053667;28;20104;-69
2022/08/29 06:21:07;;;;;;;9.65;3.97;;;;;;;;;;5054159;28;20523;-69
2022/08/29 06:23:33;;;;;;;8.98;4.50;;;;;;;;;;5053593;28;20021;-68
2022/08/29 06:25:59;;;;;;;10.98;4.22;;;;;;;;;;5054099;28;20028;-68
2022/08/29 06:28:29;;;;;;;10.40;4.93;;;;;;;;;;5053482;28;20096;-69
2022/08/29 06:30:55;;;;;;;9.77;4.53;;;;;;;;;;5053993;28;20021;-68
2022/08/29 06:33:22;;;;;;;9.30;4.80;;;;;;;;;;5053472;28;20036;-69
2022/08/29 06:35:48;;;;;;;10.43;4.95;;;;;;;;;;5053350;28;20392;-68
2022/08/29 06:38:14;;;;;;;15.68;5.07;;;;;;;;;;5053359;28;20029;-69
2022/08/29 06:40:40;;;;;;;11.10;4.38;;;;;;;;;;5053604;28;20469;-69
2022/08/29 06:43:06;;;;;;;7.97;3.85;;;;;;;;;;5053331;28;20045;-69
2022/08/29 06:45:38;;;;;;;8.73;4.00;;;;;;;;;;5053533;28;20087;-69
2022/08/29 06:48:04;;;;;;;6.82;3.80;;;;;;;;;;5053822;28;20032;-69
2022/08/29 06:50:30;;;;;;;6.43;3.80;;;;;;;;;;5053261;28;20021;-69
2022/08/29 06:52:57;;;;;;;8.38;5.45;;;;;;;;;;5053172;28;20107;-69
2022/08/29 06:55:23;;;;;;;7.63;3.85;;;;;;;;;;5052864;28;20036;-69
2022/08/29 06:57:49;;;;;;;10.32;4.10;;;;;;;;;;5053402;28;20108;-69
2022/08/29 07:00:15;;;;;;;8.20;3.92;;;;;;;;;;5053043;28;20017;-69
2022/08/29 07:02:41;;;;;;;9.43;3.83;;;;;;;;;;5053402;28;20059;-69
2022/08/29 07:05:08;;;;;;;11.60;3.83;;;;;;;;;;5053385;28;20021;-69
2022/08/29 07:07:34;;;;;;;9.32;4.07;;;;;;;;;;5053038;28;20053;-69
2022/08/29 07:10:00;;;;;;;9.13;3.90;;;;;;;;;;5052993;28;20032;-68
2022/08/29 07:12:26;;;;;;;11.98;3.40;;;;;;;;;;5053030;28;20439;-69
2022/08/29 07:14:52;;;;;;;10.07;3.83;;;;;;;;;;5052882;28;20103;-69
2022/08/29 07:17:19;;;;;;;9.02;4.07;;;;;;;;;;5053251;28;20478;-69
2022/08/29 07:19:46;;;;;;;8.27;3.70;;;;;;;;;;5052946;28;20028;-69
2022/08/29 07:22:12;;;;;;;8.55;3.50;;;;;;;;;;5052909;28;20029;-69
2022/08/29 07:24:38;;;;;;;9.30;3.58;;;;;;;;;;5052879;28;20017;-69
2022/08/29 07:27:04;;;;;;;13.13;4.07;;;;;;;;;;5052921;28;20036;-68
2022/08/29 07:29:30;;;;;;;8.70;3.55;;;;;;;;;;5034973;28;20025;-69
2022/08/29 07:31:56;;;;;;;9.80;4.03;;;;;;;;;;5053398;28;20390;-69
2022/08/29 07:34:22;;;;;;;11.32;3.85;;;;;;;;;;5052800;28;20025;-69
2022/08/29 07:36:48;;;;;;;8.15;4.05;;;;;;;;;;5052965;28;20436;-69
2022/08/29 07:39:16;;;;;;;8.30;3.67;;;;;;;;;;5052733;28;20052;-69
2022/08/29 07:41:43;;;;;;;9.20;4.13;;;;;;;;;;5052996;28;20056;-69
2022/08/29 07:44:10;;;;;;;7.53;3.65;;;;;;;;;;5055766;28;20017;-69
2022/08/29 07:46:36;;;;;;;8.50;3.70;;;;;;;;;;5056540;28;20078;-69
2022/08/29 07:49:03;;;;;;;8.52;3.92;;;;;;;;;;5056775;28;20481;-69
2022/08/29 07:51:29;;;;;;;8.40;4.00;;;;;;;;;;5056447;28;20031;-70
2022/08/29 07:53:56;;;;;;;9.23;3.30;;;;;;;;;;5056309;28;20025;-69
2022/08/29 07:56:24;;;;;;;6.75;3.28;;;;;;;;;;5055979;28;20057;-68
2022/08/29 07:58:50;;;;;;;5.95;3.10;;;;;;;;;;5055160;28;20017;-69
2022/08/29 08:01:16;;;;;;;8.30;3.25;;;;;;;;;;5055188;28;20032;-69
2022/08/29 08:03:42;;;;;;;7.35;3.33;;;;;;;;;;5056744;28;20036;-69
2022/08/29 08:06:08;;;;;;;8.85;3.22;;;;;;;;;;5056448;28;20075;-69
2022/08/29 08:08:35;;;;;;;8.23;3.08;;;;;;;;;;5056128;28;20104;-69
2022/08/29 08:11:03;;;;;;;7.55;3.10;;;;;;;;;;5056386;28;20029;-69
2022/08/29 08:13:28;;;;;;;9.43;2.88;;;;;;;;;;5056109;28;20021;-69
2022/08/29 08:15:54;;;;;;;7.40;2.90;;;;;;;;;;5055326;28;20029;-69
2022/08/29 08:18:21;;;;;;;6.57;2.97;;;;;;;;;;5055933;28;20025;-69
2022/08/29 08:20:47;;;;;;;5.53;2.53;;;;;;;;;;5055884;28;20071;-69
2022/08/29 08:23:17;;;;;;;6.72;2.90;;;;;;;;;;5055880;28;20020;-69
2022/08/29 08:25:44;;;;;;;6.57;3.00;;;;;;;;;;5037685;28;20473;-69
2022/08/29 08:28:11;;;;;;;6.38;2.90;;;;;;;;;;5055794;28;20024;-69
2022/08/29 08:30:37;;;;;;;5.78;3.05;;;;;;;;;;5055729;28;20029;-69
2022/08/29 08:33:04;;;;;;;6.15;2.72;;;;;;;;;;5056184;28;20032;-69
2022/08/29 08:35:32;;;;;;;9.23;3.03;;;;;;;;;;5055578;28;20029;-69
2022/08/29 08:37:59;;;;;;;6.00;3.10;;;;;;;;;;5055645;28;20067;-69
2022/08/29 08:40:27;;;;;;;8.07;2.97;;;;;;;;;;5055567;28;20393;-69
2022/08/29 08:42:59;;;;;;;6.32;2.83;;;;;;;;;;5055505;28;20424;-69
2022/08/29 08:45:45;;;;;;;7.38;2.92;;;;;;;;;;5055497;28;20104;-69
2022/08/29 08:48:19;;;;;;;4.85;2.75;;;;;;;;;;5054959;28;20082;-73
2022/08/29 08:50:51;;;;;;;10.45;3.30;;;;;;;;;;5055241;28;20107;-70
2022/08/29 08:53:22;;;;;;;5.25;2.80;;;;;;;;;;5054927;28;20033;-70
2022/08/29 08:55:53;;;;;;;4.85;2.50;;;;;;;;;;5055037;28;20072;-70
2022/08/29 08:58:19;;;;;;;4.28;2.50;;;;;;;;;;5055292;28;20029;-76
2022/08/29 09:00:54;;;;;;;4.78;2.55;;;;;;;;;;5037230;28;20151;-76
2022/08/29 09:03:28;;;;;;;8.55;3.10;;;;;;;;;;5055201;28;20104;-70
2022/08/29 09:05:55;;;;;;;7.35;2.53;;;;;;;;;;5055437;28;20032;-75
2022/08/29 09:08:41;;;;;;;7.07;3.28;;;;;;;;;;5054884;28;20025;-74
2022/08/29 09:11:16;;;;;;;6.55;2.67;;;;;;;;;;5054945;28;20023;-76
2022/08/29 09:13:44;;;;;;;8.32;2.67;;;;;;;;;;5054900;28;20155;-73
2022/08/29 09:16:30;;;;;;;6.68;3.22;;;;;;;;;;5036894;28;20060;-69
2022/08/29 09:19:00;;;;;;;7.75;2.78;;;;;;;;;;5036946;28;20029;-70
2022/08/29 09:21:26;;;;;;;6.20;3.05;;;;;;;;;;5036669;28;20448;-71
2022/08/29 09:23:56;;;;;;;6.63;3.05;;;;;;;;;;5054874;28;20029;-70
2022/08/29 09:26:22;;;;;;;5.75;2.58;;;;;;;;;;5054973;28;20025;-71
2022/08/29 09:28:48;;;;;;;6.35;2.92;;;;;;;;;;5055200;28;20033;-69
2022/08/29 09:31:17;;;;;;;6.57;2.47;;;;;;;;;;5055013;28;20031;-70
2022/08/29 09:33:48;;;;;;;13.60;3.55;;;;;;;;;;5054668;28;20029;-71
2022/08/29 09:36:15;;;;;;;7.07;3.03;;;;;;;;;;5054481;28;20029;-69
2022/08/29 09:38:42;;;;;;;7.47;3.15;;;;;;;;;;5054302;28;20029;-70
2022/08/29 09:41:09;;;;;;;7.63;3.13;;;;;;;;;;5036579;28;20116;-70
2022/08/29 09:43:38;;;;;;;6.32;2.97;;;;;;;;;;5054446;28;20049;-70
2022/08/29 09:46:10;;;;;;;5.97;2.92;;;;;;;;;;5054257;28;20021;-70
2022/08/29 09:48:44;;;;;;;7.85;2.85;;;;;;;;;;5054218;28;20032;-70
2022/08/29 09:51:23;;;;;;;6.80;3.00;;;;;;;;;;5054718;28;20096;-69
2022/08/29 09:53:50;;;;;;;7.00;2.70;;;;;;;;;;5054170;28;20079;-69
2022/08/29 09:56:26;;;;;;;7.07;2.95;;;;;;;;;;5053855;28;20452;-69
2022/08/29 09:59:04;;;;;;;8.82;2.90;;;;;;;;;;5054353;28;20039;-70
2022/08/29 10:01:31;;;;;;;9.23;2.90;;;;;;;;;;5053955;28;20017;-69
2022/08/29 10:04:01;;;;;;;9.63;3.33;;;;;;;;;;5053933;28;20052;-70
2022/08/29 10:06:30;;;;;;;6.32;2.92;;;;;;;;;;5053456;28;20071;-69
2022/08/29 10:09:05;;;;;;;8.68;3.25;;;;;;;;;;5053868;28;20551;-69
2022/08/29 10:11:34;;;;;;;7.20;3.08;;;;;;;;;;5053821;28;20057;-70
2022/08/29 10:14:05;;;;;;;7.72;3.72;;;;;;;;;;5054325;28;20107;-70
2022/08/29 10:16:36;;;;;;;9.68;3.10;;;;;;;;;;5053687;28;20025;-70
2022/08/29 10:19:04;;;;;;;6.50;3.15;;;;;;;;;;5054070;28;20027;-70
2022/08/29 10:21:54;;;;;;;10.20;3.00;;;;;;;;;;5054017;28;20029;-70
2022/08/29 10:24:20;;;;;;;6.65;2.88;;;;;;;;;;5048105;28;20057;-70
2022/08/29 10:26:56;;;;;;;9.13;3.20;;;;;;;;;;5053835;28;20058;-69
2022/08/29 10:29:25;;;;;;;7.63;2.83;;;;;;;;;;5053868;28;20111;-70
2022/08/29 10:32:00;;;;;;;6.07;3.38;;;;;;;;;;5054385;28;20103;-69
2022/08/29 10:34:45;;;;;;;16.65;3.53;;;;;;;;;;5053995;28;20377;-70
2022/08/29 10:37:27;;;;;;;5.97;2.78;;;;;;;;;;5053713;28;20489;-69
2022/08/29 10:39:53;;;;;;;10.27;3.50;;;;;;;;;;5053685;28;20028;-70
2022/08/29 10:42:22;;;;;;;10.20;3.10;;;;;;;;;;5053343;28;20021;-70
2022/08/29 10:45:12;;;;;;;4.38;3.00;;;;;;;;;;5053313;28;20025;-70
2022/08/29 10:47:40;;;;;;;7.45;3.28;;;;;;;;;;5053617;28;20100;-71
2022/08/29 10:50:17;;;;;;;9.38;3.40;;;;;;;;;;5053232;28;20029;-70
2022/08/29 10:52:49;;;;;;;11.13;3.20;;;;;;;;;;5053511;28;20100;-70
2022/08/29 10:55:19;;;;;;;6.53;3.03;;;;;;;;;;5052664;28;20032;-69
2022/08/29 10:57:59;;;;;;;5.82;3.10;;;;;;;;;;5053487;28;20389;-69
2022/08/29 11:00:35;;;;;;;9.43;3.38;;;;;;;;;;5053417;28;20021;-70
2022/08/29 11:03:07;;;;;;;6.47;2.60;;;;;;;;;;5053418;28;20017;-69
2022/08/29 11:05:39;;;;;;;6.38;2.60;;;;;;;;;;5053378;28;20385;-69
2022/08/29 11:08:07;;;;;;;10.82;3.38;;;;;;;;;;5053094;28;20025;-69
2022/08/29 11:10:39;;;;;;;6.53;3.07;;;;;;;;;;5035185;28;20039;-69
2022/08/29 11:13:26;;;;;;;8.07;3.45;;;;;;;;;;5053046;28;20335;-70
2022/08/29 11:16:01;;;;;;;4.38;2.85;;;;;;;;;;5053513;28;20055;-70
2022/08/29 11:18:42;;;;;;;8.77;3.00;;;;;;;;;;5038862;28;20021;-69
2022/08/29 11:21:08;;;;;;;8.20;3.30;;;;;;;;;;5039124;28;20385;-70
2022/08/29 11:23:45;;;;;;;7.72;3.22;;;;;;;;;;5057006;28;20021;-70
2022/08/29 11:26:11;;;;;;;5.95;3.40;;;;;;;;;;5057291;28;20024;-70
2022/08/29 11:28:41;;;;;;;7.63;3.20;;;;;;;;;;5056900;28;20025;-69
2022/08/29 11:31:07;;;;;;;7.63;3.45;;;;;;;;;;5056871;28;20025;-70
2022/08/29 11:33:41;;;;;;;8.10;3.20;;;;;;;;;;5057576;28;20039;-70
2022/08/29 11:36:07;;;;;;;6.78;3.08;;;;;;;;;;5057017;28;20025;-69
2022/08/29 11:38:42;;;;;;;9.70;3.65;;;;;;;;;;5057004;28;20028;-70
2022/08/29 11:41:21;;;;;;;3.90;3.05;;;;;;;;;;5056685;28;20029;-70
2022/08/29 11:43:49;;;;;;;5.82;3.17;;;;;;;;;;5056984;28;20027;-69
2022/08/29 11:46:16;;;;;;;7.80;3.83;;;;;;;;;;5056604;28;20025;-69
2022/08/29 11:48:44;;;;;;;9.05;4.15;;;;;;;;;;5038650;28;20379;-69
2022/08/29 11:51:30;;;;;;;7.25;3.97;;;;;;;;;;5056540;28;20052;-69
2022/08/29 11:53:56;;;;;;;6.35;3.03;;;;;;;;;;5056970;28;20036;-69
2022/08/29 11:56:24;;;;;;;7.38;3.70;;;;;;;;;;5056387;28;20049;-70
2022/08/29 11:58:52;;;;;;;6.15;3.38;;;;;;;;;;5056367;28;20074;-71
2022/08/29 12:01:24;;;;;;;6.28;3.80;;;;;;;;;;5056247;28;20021;-69
2022/08/29 12:03:57;;;;;;;8.15;4.25;;;;;;;;;;5056794;28;20028;-70
2022/08/29 12:06:42;;;;;;;7.28;3.47;;;;;;;;;;5056501;28;20063;-70
2022/08/29 12:09:18;;;;;;;8.25;4.25;;;;;;;;;;5056198;28;20079;-70
2022/08/29 12:12:11;;;;;;;7.10;3.88;;;;;;;;;;5056697;28;20021;-70
2022/08/29 12:14:39;;;;;;;7.00;3.75;;;;;;;;;;5056648;28;20106;-69
2022/08/29 12:17:30;;;;;;;6.38;3.78;;;;;;;;;;5055921;28;20079;-70
2022/08/29 12:19:56;;;;;;;8.15;3.97;;;;;;;;;;5055895;28;20031;-69
2022/08/29 12:22:41;;;;;;;6.28;3.72;;;;;;;;;;5055954;28;20457;-70
2022/08/29 12:25:25;;;;;;;10.15;3.70;;;;;;;;;;5056140;28;20385;-69
2022/08/29 12:28:01;;;;;;;6.85;3.72;;;;;;;;;;5037589;28;20363;-70
2022/08/29 12:30:29;;;;;;;8.60;3.97;;;;;;;;;;5055729;28;20053;-69
2022/08/29 12:33:03;;;;;;;7.75;3.85;;;;;;;;;;5038432;28;20029;-69
2022/08/29 12:35:48;;;;;;;5.85;3.70;;;;;;;;;;5055890;28;20389;-70
2022/08/29 12:38:33;;;;;;;7.88;4.03;;;;;;;;;;5055870;28;20029;-69
2022/08/29 12:41:11;;;;;;;8.40;4.45;;;;;;;;;;5056146;28;20029;-70
2022/08/29 12:43:41;;;;;;;7.40;3.90;;;;;;;;;;5055762;28;20021;-70
2022/08/29 12:46:25;;;;;;;8.95;4.35;;;;;;;;;;5055773;28;20052;-70
2022/08/29 12:48:56;;;;;;;11.80;4.00;;;;;;;;;;5055740;28;20057;-70
2022/08/29 12:51:33;;;;;;;8.15;3.97;;;;;;;;;;5055362;28;20057;-70
2022/08/29 12:53:59;;;;;;;9.73;4.03;;;;;;;;;;5055932;28;20064;-69
2022/08/29 12:56:25;;;;;;;9.27;4.32;;;;;;;;;;5054996;28;20053;-70
2022/08/29 12:58:51;;;;;;;7.15;4.53;;;;;;;;;;5055470;28;20074;-70
2022/08/29 13:01:36;;;;;;;7.70;3.97;;;;;;;;;;5055388;28;20029;-70
2022/08/29 13:04:14;;;;;;;23.40;8.43;;;;;;;;;;5055452;28;20021;-69
2022/08/29 13:06:54;;;;;;;6.88;4.15;;;;;;;;;;5055072;28;20048;-70
2022/08/29 13:09:28;;;;;;;9.73;4.43;;;;;;;;;;5055614;28;20078;-70
2022/08/29 13:12:11;;;;;;;13.82;4.60;;;;;;;;;;5055245;28;20025;-69
2022/08/29 13:14:46;;;;;;;11.73;4.40;;;;;;;;;;5054881;28;20505;-70
2022/08/29 13:17:14;;;;;;;8.85;4.40;;;;;;;;;;5055318;28;20037;-69
2022/08/29 13:19:40;;;;;;;9.07;4.47;;;;;;;;;;5054838;28;20021;-69
2022/08/29 13:22:11;;;;;;;7.32;4.18;;;;;;;;;;5054796;28;20056;-70
2022/08/29 13:24:37;;;;;;;6.82;4.38;;;;;;;;;;5055050;28;20021;-70
2022/08/29 13:27:03;;;;;;;7.95;4.07;;;;;;;;;;5054638;28;20037;-69
2022/08/29 13:29:34;;;;;;;7.22;4.00;;;;;;;;;;5054879;28;20028;-70
2022/08/29 13:32:15;;;;;;;6.75;4.82;;;;;;;;;;5055745;28;20025;-69
2022/08/29 13:35:00;;;;;;;8.63;4.40;;;;;;;;;;5054815;28;20029;-69
2022/08/29 13:37:36;;;;;;;6.25;4.03;;;;;;;;;;5055048;28;20028;-70
2022/08/29 13:40:21;;;;;;;8.68;4.22;;;;;;;;;;5054980;28;20028;-70
2022/08/29 13:42:47;;;;;;;9.38;4.20;;;;;;;;;;5054881;28;20021;-70
2022/08/29 13:45:14;;;;;;;8.15;3.50;;;;;;;;;;5054281;28;20021;-70
2022/08/29 13:47:51;;;;;;;8.15;4.50;;;;;;;;;;5054312;28;20528;-70
2022/08/29 13:50:17;;;;;;;8.00;4.10;;;;;;;;;;5054787;28;20424;-69
2022/08/29 13:52:43;;;;;;;7.70;3.83;;;;;;;;;;5054182;28;20032;-70
2022/08/29 13:55:09;;;;;;;6.28;3.80;;;;;;;;;;5053947;28;20028;-70
2022/08/29 13:57:37;;;;;;;13.77;4.10;;;;;;;;;;5054094;28;20104;-70
2022/08/29 14:00:05;;;;;;;5.18;3.40;;;;;;;;;;5054046;28;20506;-70
2022/08/29 14:02:32;;;;;;;11.95;4.93;;;;;;;;;;5053973;28;20017;-69
2022/08/29 14:04:58;;;;;;;5.57;3.65;;;;;;;;;;5054034;28;20032;-70
2022/08/29 14:07:29;;;;;;;8.20;4.05;;;;;;;;;;5053956;28;20492;-69
2022/08/29 14:09:55;;;;;;;6.40;3.65;;;;;;;;;;5053935;28;20079;-70
2022/08/29 14:12:21;;;;;;;6.85;3.83;;;;;;;;;;5035929;28;20017;-70
2022/08/29 14:14:48;;;;;;;5.07;3.75;;;;;;;;;;5054370;28;20032;-69
2022/08/29 14:17:14;;;;;;;6.68;3.97;;;;;;;;;;5053700;28;20108;-70
2022/08/29 14:19:40;;;;;;;9.98;4.88;;;;;;;;;;5054008;28;20021;-70
2022/08/29 14:22:07;;;;;;;8.38;4.28;;;;;;;;;;5053982;28;20028;-69
2022/08/29 14:24:33;;;;;;;8.13;3.90;;;;;;;;;;5053917;28;20102;-70
2022/08/29 14:27:00;;;;;;;7.82;3.85;;;;;;;;;;5053582;28;20559;-70
2022/08/29 14:29:26;;;;;;;8.07;4.05;;;;;;;;;;5053835;28;20504;-69
2022/08/29 14:31:53;;;;;;;7.35;3.95;;;;;;;;;;5053509;28;20029;-70
2022/08/29 14:34:19;;;;;;;6.07;4.28;;;;;;;;;;5036195;28;20082;-70
2022/08/29 14:36:46;;;;;;;8.35;4.63;;;;;;;;;;5053351;28;20048;-69
2022/08/29 14:39:12;;;;;;;7.78;4.25;;;;;;;;;;5053367;28;20033;-70
2022/08/29 14:41:38;;;;;;;7.47;4.40;;;;;;;;;;5053328;28;20017;-69
2022/08/29 14:44:04;;;;;;;6.50;4.15;;;;;;;;;;5053365;28;20371;-70
2022/08/29 14:46:31;;;;;;;8.07;4.00;;;;;;;;;;5053324;28;20079;-70
2022/08/29 14:48:57;;;;;;;6.20;3.90;;;;;;;;;;5053294;28;20393;-70
2022/08/29 14:51:23;;;;;;;6.93;4.20;;;;;;;;;;5052853;28;20021;-70